Time;durP1;ratioP1;P1;durP2;ratioP2;P2;SDS_P1;SDS_P2;PMS_P1;PMS_P2;Temp;Humidity;BMP_temperature;BMP_pressure;BME280_temperature;BME280_humidity;BME280_pressure;Samples;Min_cycle;Max_cycle;Signal;HPM_P1;HPM_P2
2022/07/19 00:00:11;;;;;;;1.88;0.95;;;;;;;14.75;81.28;99222.78;5047571;28;20117;-41
2022/07/19 00:02:39;;;;;;;1.02;0.90;;;;;;;14.64;81.23;99213.88;5047678;28;20056;-41
2022/07/19 00:05:07;;;;;;;6.60;1.38;;;;;;;14.71;81.74;99223.88;5046996;28;20040;-41
2022/07/19 00:07:36;;;;;;;2.10;1.15;;;;;;;14.59;81.85;99214.13;5047254;28;20045;-40
2022/07/19 00:10:05;;;;;;;3.55;1.00;;;;;;;14.64;81.96;99217.31;5046993;28;20091;-40
2022/07/19 00:12:30;;;;;;;1.83;1.20;;;;;;;14.54;82.03;99208.34;5048458;28;20045;-40
2022/07/19 00:14:56;;;;;;;2.35;1.15;;;;;;;14.60;81.75;99220.22;5048700;28;20098;-41
2022/07/19 00:17:22;;;;;;;2.45;1.02;;;;;;;14.54;81.70;99220.56;5047401;28;20045;-42
2022/07/19 00:19:48;;;;;;;1.85;1.08;;;;;;;14.52;81.95;99225.03;5046562;28;20041;-41
2022/07/19 00:22:13;;;;;;;1.88;1.08;;;;;;;14.49;82.19;99226.06;5047422;28;20051;-42
2022/07/19 00:24:39;;;;;;;3.58;1.15;;;;;;;14.44;81.88;99222.88;5048565;28;20044;-42
2022/07/19 00:27:05;;;;;;;2.22;0.90;;;;;;;14.32;81.72;99208.69;5046199;28;20052;-41
2022/07/19 00:29:32;;;;;;;2.17;1.00;;;;;;;14.39;81.90;99227.53;5048047;28;20048;-42
2022/07/19 00:31:59;;;;;;;2.70;1.05;;;;;;;14.38;82.18;99223.22;5052600;28;20133;-43
2022/07/19 00:34:24;;;;;;;1.25;0.77;;;;;;;14.25;81.65;99209.09;5051620;28;20123;-42
2022/07/19 00:36:50;;;;;;;2.13;1.00;;;;;;;14.30;81.39;99220.16;5050406;28;20036;-40
2022/07/19 00:39:16;;;;;;;3.42;1.10;;;;;;;14.11;81.96;99194.22;5033909;28;20064;-41
2022/07/19 00:41:43;;;;;;;1.17;1.00;;;;;;;14.10;82.12;99202.13;5039749;28;20060;-41
2022/07/19 00:44:10;;;;;;;2.10;0.90;;;;;;;14.12;82.06;99211.59;5050609;28;20037;-41
2022/07/19 00:46:36;;;;;;;1.25;0.80;;;;;;;14.22;82.23;99228.44;5051903;28;20045;-42
2022/07/19 00:49:03;;;;;;;4.30;1.00;;;;;;;14.27;82.57;99233.41;5046643;28;20041;-42
2022/07/19 00:51:35;;;;;;;3.67;1.38;;;;;;;14.30;82.55;99235.84;5015318;28;20087;-42
2022/07/19 00:54:02;;;;;;;1.17;0.90;;;;;;;14.31;82.66;99227.06;5050535;28;20052;-41
2022/07/19 00:56:32;;;;;;;1.33;0.80;;;;;;;14.31;82.32;99227.91;5050313;28;20476;-41
2022/07/19 00:58:58;;;;;;;;;;;;;;;14.33;82.24;99233.91;5050914;28;20041;-41
2022/07/19 01:01:24;;;;;;;0.75;0.75;;;;;;;14.37;81.96;99226.75;5065402;28;19921;-41
2022/07/19 01:03:50;;;;;;;1.15;1.05;;;;;;;14.36;81.59;99225.03;5030005;28;20052;-41
2022/07/19 01:06:16;;;;;;;3.35;1.05;;;;;;;14.34;82.08;99222.50;5049708;28;20075;-41
2022/07/19 01:08:42;;;;;;;2.78;0.82;;;;;;;14.38;81.81;99224.06;5051560;28;20382;-40
2022/07/19 01:11:08;;;;;;;4.40;0.70;;;;;;;14.32;81.60;99213.91;5036731;28;20066;-42
2022/07/19 01:13:34;;;;;;;2.42;0.95;;;;;;;14.37;81.11;99222.38;5050580;28;20543;-41
2022/07/19 01:16:01;;;;;;;0.98;0.60;;;;;;;14.34;80.74;99225.09;5034089;28;20048;-41
2022/07/19 01:18:28;;;;;;;2.47;0.90;;;;;;;14.29;80.67;99224.53;5049545;28;20033;-42
2022/07/19 01:20:54;;;;;;;1.77;0.88;;;;;;;14.28;80.86;99235.94;5050974;28;20041;-42
2022/07/19 01:23:20;;;;;;;2.05;0.90;;;;;;;14.33;80.76;99235.69;5033475;28;20573;-42
2022/07/19 01:25:46;;;;;;;4.07;0.90;;;;;;;14.38;80.42;99229.28;5049388;28;20053;-40
2022/07/19 01:28:11;;;;;;;2.03;0.80;;;;;;;14.45;80.27;99234.16;5050787;28;20072;-41
2022/07/19 01:30:37;;;;;;;2.45;0.70;;;;;;;14.35;79.98;99229.41;5050867;28;20524;-41
2022/07/19 01:33:04;;;;;;;3.80;0.80;;;;;;;14.27;80.35;99225.56;5033365;28;20040;-40
2022/07/19 01:35:30;;;;;;;1.27;0.75;;;;;;;14.38;79.91;99226.69;5049464;28;20040;-41
2022/07/19 01:37:56;;;;;;;3.28;0.85;;;;;;;14.38;80.11;99220.59;5041925;28;20425;-40
2022/07/19 01:40:22;;;;;;;1.20;1.00;;;;;;;14.45;79.94;99234.16;5031039;28;20057;-42
2022/07/19 01:42:49;;;;;;;2.58;1.10;;;;;;;14.44;79.79;99230.72;5045067;28;20044;-41
2022/07/19 01:45:15;;;;;;;1.40;0.90;;;;;;;14.40;79.60;99230.03;5012806;28;20038;-41
2022/07/19 01:47:41;;;;;;;0.80;0.70;;;;;;;14.39;79.89;99232.75;5048074;28;20048;-41
2022/07/19 01:50:08;;;;;;;2.95;0.77;;;;;;;14.44;79.48;99240.34;5050643;28;20040;-41
2022/07/19 01:52:34;;;;;;;0.73;0.60;;;;;;;14.50;79.40;99237.38;5050267;28;20135;-41
2022/07/19 01:55:00;;;;;;;1.77;0.90;;;;;;;14.52;79.47;99230.25;5049485;28;20139;-41
2022/07/19 01:57:28;;;;;;;1.17;0.70;;;;;;;14.47;79.13;99222.69;5050017;28;20096;-41
2022/07/19 01:59:54;;;;;;;1.45;0.70;;;;;;;14.60;78.94;99235.91;5049175;28;20135;-41
2022/07/19 02:02:20;;;;;;;0.88;0.77;;;;;;;14.59;78.56;99226.38;5050474;28;20041;-41
2022/07/19 02:04:46;;;;;;;1.48;0.70;;;;;;;14.63;78.40;99225.25;5050244;28;20570;-41
2022/07/19 02:07:12;;;;;;;2.35;0.80;;;;;;;14.64;78.03;99219.94;5050036;28;20041;-42
2022/07/19 02:09:38;;;;;;;1.88;0.90;;;;;;;14.77;77.88;99239.22;5045475;28;20091;-41
2022/07/19 02:12:04;;;;;;;2.55;0.70;;;;;;;14.71;77.49;99241.34;5042645;28;20044;-41
2022/07/19 02:14:30;;;;;;;0.80;0.60;;;;;;;14.74;78.10;99243.78;5048968;28;20048;-41
2022/07/19 02:16:56;;;;;;;1.50;0.90;;;;;;;14.87;77.85;99247.38;5049948;28;20037;-40
2022/07/19 02:19:22;;;;;;;1.08;0.70;;;;;;;14.95;77.41;99250.38;5041141;28;20532;-41
2022/07/19 02:21:48;;;;;;;1.17;0.80;;;;;;;14.96;76.95;99244.22;5044718;28;20033;-41
2022/07/19 02:24:14;;;;;;;1.13;0.70;;;;;;;15.11;76.46;99250.31;5049893;28;20045;-41
2022/07/19 02:26:40;;;;;;;1.55;0.85;;;;;;;15.14;76.50;99260.59;5031802;28;20090;-40
2022/07/19 02:29:06;;;;;;;2.22;0.60;;;;;;;15.21;76.52;99260.16;5049768;28;20467;-42
2022/07/19 02:31:33;;;;;;;1.40;0.80;;;;;;;15.25;75.79;99266.03;5048446;28;20041;-40
2022/07/19 02:33:58;;;;;;;2.85;0.77;;;;;;;15.14;75.72;99265.84;5049843;28;20364;-41
2022/07/19 02:36:24;;;;;;;4.63;1.23;;;;;;;15.15;75.91;99268.38;5031871;28;20045;-41
2022/07/19 02:38:50;;;;;;;2.40;0.90;;;;;;;15.20;75.64;99258.47;5033899;28;20056;-41
2022/07/19 02:41:17;;;;;;;2.00;0.80;;;;;;;15.19;75.52;99254.16;5029811;28;20037;-42
2022/07/19 02:43:43;;;;;;;1.00;0.80;;;;;;;15.19;74.90;99254.16;5047837;28;20052;-42
2022/07/19 02:46:09;;;;;;;1.65;0.70;;;;;;;15.26;74.81;99267.72;5049509;28;20041;-41
2022/07/19 02:48:35;;;;;;;5.38;0.80;;;;;;;15.32;74.90;99262.13;5048949;28;20420;-42
2022/07/19 02:51:00;;;;;;;1.48;0.90;;;;;;;15.26;75.22;99257.25;5045526;28;20033;-40
2022/07/19 02:53:26;;;;;;;0.77;0.70;;;;;;;15.36;74.88;99266.25;5026651;28;20045;-42
2022/07/19 02:55:52;;;;;;;2.78;0.90;;;;;;;15.26;74.73;99263.34;5044107;28;20087;-41
2022/07/19 02:58:18;;;;;;;0.90;0.73;;;;;;;15.16;74.50;99248.28;5056719;28;20053;-41
2022/07/19 03:00:44;;;;;;;1.00;0.82;;;;;;;15.22;74.48;99272.31;5064842;28;20049;-41
2022/07/19 03:05:55;;;;;;;1.00;0.73;;;;;;;15.21;74.66;99264.53;5047247;28;20047;-43
2022/07/19 03:08:21;;;;;;;2.25;0.90;;;;;;;15.11;74.65;99263.41;5048071;28;20068;-41
2022/07/19 03:10:47;;;;;;;1.75;0.80;;;;;;;15.05;75.20;99261.16;5049371;28;20106;-41
2022/07/19 03:13:13;;;;;;;1.88;0.90;;;;;;;15.01;75.18;99268.34;5047750;28;20095;-40
2022/07/19 03:15:40;;;;;;;1.80;0.80;;;;;;;14.97;75.38;99264.22;5049421;28;20044;-41
2022/07/19 03:18:09;;;;;;;5.57;0.85;;;;;;;14.96;75.93;99264.31;5049126;28;20036;-41
2022/07/19 03:20:35;;;;;;;1.75;0.95;;;;;;;14.96;75.77;99264.31;5049250;28;20420;-41
2022/07/19 03:23:01;;;;;;;4.00;1.00;;;;;;;14.97;75.92;99269.44;5048841;28;20040;-42
2022/07/19 03:25:27;;;;;;;2.22;0.80;;;;;;;14.98;76.14;99276.38;5047554;28;20092;-41
2022/07/19 03:27:54;;;;;;;2.35;0.90;;;;;;;14.98;76.42;99276.38;5047783;28;20048;-43
2022/07/19 03:30:21;;;;;;;2.97;0.90;;;;;;;15.00;76.60;99282.38;5049366;28;20119;-42
2022/07/19 03:32:48;;;;;;;2.05;0.80;;;;;;;14.99;76.76;99277.22;5049053;28;20045;-42
2022/07/19 03:35:14;;;;;;;1.95;0.70;;;;;;;14.91;76.52;99271.59;5048710;28;20052;-41
2022/07/19 03:37:40;;;;;;;1.10;0.90;;;;;;;14.83;76.64;99270.25;5043972;28;20398;-41
2022/07/19 03:40:06;;;;;;;1.17;1.00;;;;;;;14.78;76.70;99267.06;5029165;28;20048;-41
2022/07/19 03:42:32;;;;;;;1.00;0.80;;;;;;;14.89;76.74;99279.53;5035272;28;20041;-40
2022/07/19 03:44:58;;;;;;;2.88;0.90;;;;;;;14.92;76.99;99278.50;5048958;28;20140;-42
2022/07/19 03:47:24;;;;;;;2.35;0.80;;;;;;;14.91;77.06;99279.47;5048798;28;20457;-42
2022/07/19 03:49:50;;;;;;;2.17;0.90;;;;;;;14.84;76.85;99290.28;5031098;28;20040;-41
2022/07/19 03:52:15;;;;;;;4.88;0.98;;;;;;;14.83;77.16;99285.97;5046896;28;20040;-42
2022/07/19 03:54:41;;;;;;;1.48;1.00;;;;;;;14.81;76.86;99277.34;5030901;28;20063;-41
2022/07/19 03:57:07;;;;;;;3.38;0.90;;;;;;;14.92;76.72;99281.13;5048294;28;20084;-41
2022/07/19 03:59:33;;;;;;;6.45;1.20;;;;;;;15.02;76.63;99288.34;5047112;28;20428;-41
2022/07/19 04:01:59;;;;;;;3.30;0.90;;;;;;;14.96;76.62;99280.03;5048313;28;20045;-41
2022/07/19 04:04:26;;;;;;;1.58;1.05;;;;;;;14.98;76.44;99281.59;5049366;28;20044;-41
2022/07/19 04:06:52;;;;;;;1.20;1.10;;;;;;;14.93;76.24;99275.81;5052106;28;20517;-41
2022/07/19 04:09:18;;;;;;;1.35;0.80;;;;;;;14.98;75.71;99286.00;5050650;28;20041;-43
2022/07/19 04:11:44;;;;;;;1.70;0.90;;;;;;;14.85;76.19;99270.19;5031855;28;20091;-41
2022/07/19 04:14:10;;;;;;;1.10;1.00;;;;;;;15.01;75.81;99285.84;5051805;28;20397;-41
2022/07/19 04:16:36;;;;;;;3.08;0.90;;;;;;;14.89;75.69;99276.06;5052701;28;20037;-41
2022/07/19 04:19:02;;;;;;;1.40;1.05;;;;;;;15.03;75.75;99287.41;5051432;28;20713;-41
2022/07/19 04:21:27;;;;;;;2.17;0.80;;;;;;;15.05;75.35;99282.94;5050748;28;20055;-41
2022/07/19 04:23:53;;;;;;;3.47;0.90;;;;;;;15.08;74.89;99277.50;5052121;28;20119;-42
2022/07/19 04:26:19;;;;;;;1.52;0.85;;;;;;;15.11;74.67;99285.22;5052129;28;20045;-41
2022/07/19 04:28:49;;;;;;;3.13;0.80;;;;;;;15.11;74.54;99282.59;5052049;28;20041;-41
2022/07/19 04:31:16;;;;;;;3.60;0.88;;;;;;;15.10;74.78;99274.81;5052687;28;20037;-41
2022/07/19 04:33:42;;;;;;;1.30;0.90;;;;;;;15.23;74.26;99291.47;5052230;28;20041;-42
2022/07/19 04:36:08;;;;;;;3.78;1.27;;;;;;;15.21;74.52;99264.53;5042228;28;20048;-41
2022/07/19 04:38:34;;;;;;;1.00;0.85;;;;;;;15.28;73.89;99266.69;5047471;28;20033;-41
2022/07/19 04:41:00;;;;;;;1.10;0.93;;;;;;;15.44;73.59;99286.75;5050334;28;20052;-41
2022/07/19 04:43:29;;;;;;;3.15;0.80;;;;;;;15.48;73.48;99280.38;5050003;28;20037;-41
2022/07/19 04:45:59;;;;;;;4.85;1.00;;;;;;;15.54;72.89;99277.44;5052073;28;20136;-41
2022/07/19 04:48:26;;;;;;;3.65;1.23;;;;;;;15.59;72.25;99273.59;5051943;28;20067;-46
2022/07/19 04:50:52;;;;;;;2.10;0.80;;;;;;;15.57;72.05;99262.34;5049963;28;20056;-41
2022/07/19 04:53:18;;;;;;;2.35;0.80;;;;;;;15.65;71.37;99286.28;5051559;28;20040;-42
2022/07/19 04:55:44;;;;;;;2.40;0.77;;;;;;;15.65;71.06;99286.28;5051114;28;20132;-42
2022/07/19 04:58:09;;;;;;;1.17;0.80;;;;;;;15.70;71.31;99282.56;5050679;28;20107;-42
2022/07/19 05:00:35;;;;;;;1.10;0.85;;;;;;;15.83;71.47;99281.69;5050194;28;20049;-41
2022/07/19 05:03:01;;;;;;;5.32;1.23;;;;;;;15.97;71.23;99276.44;5050289;28;20049;-42
2022/07/19 05:05:27;;;;;;;1.52;0.90;;;;;;;16.11;70.60;99272.97;5051516;28;20041;-42
2022/07/19 05:07:53;;;;;;;2.13;1.10;;;;;;;16.13;69.61;99271.06;5043710;28;20037;-42
2022/07/19 05:10:19;;;;;;;3.15;1.40;;;;;;;16.21;69.52;99281.06;5049692;28;20048;-40
2022/07/19 05:12:44;;;;;;;1.70;0.90;;;;;;;16.30;69.54;99275.22;5046955;28;20044;-41
2022/07/19 05:15:10;;;;;;;1.73;1.10;;;;;;;16.34;69.47;99272.31;5032989;28;20501;-41
2022/07/19 05:17:37;;;;;;;0.98;0.80;;;;;;;16.46;68.33;99278.56;5050190;28;20033;-41
2022/07/19 05:20:05;;;;;;;3.58;1.00;;;;;;;16.51;67.81;99272.06;4998628;28;20049;-42
2022/07/19 05:22:31;;;;;;;0.80;0.60;;;;;;;16.57;67.13;99281.31;5049046;28;20060;-42
2022/07/19 05:24:57;;;;;;;3.65;2.17;;;;;;;16.71;66.90;99276.03;5058475;28;20040;-42
2022/07/19 05:27:23;;;;;;;0.95;0.85;;;;;;;16.81;65.88;99269.22;5051247;28;20125;-42
2022/07/19 05:29:49;;;;;;;1.77;0.80;;;;;;;16.83;65.19;99264.72;5062519;28;20452;-41
2022/07/19 05:32:15;;;;;;;1.52;0.73;;;;;;;16.89;65.08;99272.22;5071186;28;20041;-42
2022/07/19 05:34:40;;;;;;;2.03;0.80;;;;;;;16.99;65.28;99263.72;5071024;28;20044;-41
2022/07/19 05:37:07;;;;;;;2.03;1.27;;;;;;;17.15;65.24;99275.72;5070116;28;20032;-41
2022/07/19 05:39:33;;;;;;;2.08;0.95;;;;;;;17.31;64.56;99275.50;5043460;28;20044;-41
2022/07/19 05:41:58;;;;;;;1.58;1.08;;;;;;;17.47;64.46;99277.94;5047697;28;20462;-41
2022/07/19 05:44:25;;;;;;;0.68;0.68;;;;;;;17.50;62.09;99275.06;5050219;28;20049;-40
2022/07/19 05:46:51;;;;;;;1.50;0.82;;;;;;;17.57;61.83;99278.97;5032874;28;20040;-41
2022/07/19 05:49:17;;;;;;;0.95;0.70;;;;;;;17.65;61.82;99276.66;5049046;28;20420;-40
2022/07/19 05:51:43;;;;;;;1.67;0.60;;;;;;;17.63;60.79;99279.44;5047566;28;20455;-41
2022/07/19 05:54:09;;;;;;;1.00;0.68;;;;;;;17.64;60.65;99280.22;5049102;28;20519;-41
2022/07/19 05:56:35;;;;;;;1.23;0.63;;;;;;;17.85;60.51;99277.91;5049263;28;20068;-41
2022/07/19 05:59:04;;;;;;;0.90;0.80;;;;;;;18.20;60.22;99278.88;5049995;28;20044;-42
2022/07/19 06:01:30;;;;;;;1.95;0.70;;;;;;;18.53;58.37;99263.25;5049003;28;20417;-42
2022/07/19 06:03:57;;;;;;;0.98;0.70;;;;;;;18.56;57.89;99275.38;5049770;28;20044;-42
2022/07/19 06:06:26;;;;;;;0.60;0.60;;;;;;;18.43;57.24;99277.19;5031650;28;20033;-41
2022/07/19 06:08:51;;;;;;;2.13;0.73;;;;;;;18.36;57.99;99279.44;5051207;28;20041;-44
2022/07/19 06:11:18;;;;;;;1.38;0.80;;;;;;;18.24;57.75;99250.53;5045281;28;20044;-42
2022/07/19 06:13:45;;;;;;;5.38;1.00;;;;;;;18.55;58.10;99277.19;5051247;28;20036;-42
2022/07/19 06:16:11;;;;;;;1.27;0.98;;;;;;;18.80;57.28;99270.91;5029403;28;20037;-39
2022/07/19 06:18:37;;;;;;;5.35;1.13;;;;;;;19.01;57.52;99258.78;5048130;28;20105;-40
2022/07/19 06:21:07;;;;;;;2.92;0.95;;;;;;;19.26;56.44;99260.38;5047433;28;20114;-41
2022/07/19 06:23:33;;;;;;;1.05;0.82;;;;;;;19.42;55.43;99270.59;5047240;28;20107;-41
2022/07/19 06:25:59;;;;;;;1.73;0.90;;;;;;;19.55;55.52;99265.25;5048272;28;20036;-40
2022/07/19 06:28:25;;;;;;;3.10;1.55;;;;;;;19.76;54.53;99272.31;5046737;28;20135;-40
2022/07/19 06:30:51;;;;;;;1.10;0.68;;;;;;;19.90;52.63;99268.59;5048681;28;20032;-40
2022/07/19 06:33:17;;;;;;;0.82;0.68;;;;;;;20.07;52.63;99275.16;5048076;28;20405;-39
2022/07/19 06:35:44;;;;;;;2.85;0.60;;;;;;;20.47;51.59;99278.09;5012381;28;20045;-42
2022/07/19 06:38:10;;;;;;;2.53;0.80;;;;;;;20.65;51.83;99276.59;5045774;28;20037;-41
2022/07/19 06:40:36;;;;;;;1.00;0.80;;;;;;;20.98;51.44;99281.75;5047140;28;20041;-42
2022/07/19 06:43:02;;;;;;;3.95;0.80;;;;;;;21.03;50.18;99274.28;5030003;28;21021;-43
2022/07/19 06:45:27;;;;;;;1.42;0.70;;;;;;;20.77;50.08;99275.59;5044973;28;20126;-44
2022/07/19 06:47:53;;;;;;;0.80;0.70;;;;;;;21.55;48.63;99277.81;5046365;28;20047;-41
2022/07/19 06:50:20;;;;;;;0.65;0.60;;;;;;;22.79;45.57;99263.22;5048945;28;20079;-43
2022/07/19 06:52:45;;;;;;;0.70;0.70;;;;;;;24.07;40.99;99282.00;5028971;28;20513;-45
2022/07/19 06:55:11;;;;;;;2.78;0.70;;;;;;;24.98;39.81;99277.50;5048413;28;20123;-41
2022/07/19 06:57:38;;;;;;;0.85;0.68;;;;;;;25.70;37.59;99279.84;5030813;28;20156;-44
2022/07/19 07:00:06;;;;;;;2.25;0.63;;;;;;;25.99;36.34;99279.50;5030717;28;20135;-41
2022/07/19 07:02:32;;;;;;;1.30;0.70;;;;;;;27.49;34.65;99281.03;5048659;28;20103;-41
2022/07/19 07:04:58;;;;;;;5.50;2.70;;;;;;;29.02;33.50;99282.16;5046484;28;20040;-41
2022/07/19 07:07:24;;;;;;;0.75;0.70;;;;;;;30.34;31.37;99264.50;5044779;28;20083;-41
2022/07/19 07:09:50;;;;;;;4.90;1.55;;;;;;;29.35;32.80;99255.13;5042769;28;20041;-42
2022/07/19 07:12:16;;;;;;;1.88;0.50;;;;;;;29.76;29.77;99276.94;5048845;28;20044;-41
2022/07/19 07:14:42;;;;;;;1.27;0.80;;;;;;;30.01;30.08;99272.97;5043299;28;20821;-42
2022/07/19 07:17:07;;;;;;;1.13;1.05;;;;;;;31.53;27.74;99270.78;5047179;28;20059;-42
2022/07/19 07:19:33;;;;;;;2.60;0.70;;;;;;;31.95;27.66;99267.13;5030551;28;20041;-40
2022/07/19 07:22:01;;;;;;;3.17;1.05;;;;;;;31.42;28.10;99265.13;5050681;28;20053;-43
2022/07/19 07:24:27;;;;;;;2.22;0.65;;;;;;;33.02;26.32;99275.31;5043469;28;20409;-45
2022/07/19 07:26:53;;;;;;;2.75;0.70;;;;;;;32.80;26.80;99273.84;5047641;28;20033;-44
2022/07/19 07:29:19;;;;;;;0.70;0.60;;;;;;;32.08;27.05;99270.91;5048098;28;20109;-42
2022/07/19 07:31:45;;;;;;;1.58;0.80;;;;;;;31.58;27.44;99275.59;5011578;28;20064;-48
2022/07/19 07:34:11;;;;;;;1.52;0.70;;;;;;;29.79;29.85;99260.47;5030206;28;20045;-44
2022/07/19 07:36:39;;;;;;;3.17;0.60;;;;;;;28.69;30.94;99263.81;5043593;28;20079;-43
2022/07/19 07:39:04;;;;;;;5.35;1.00;;;;;;;27.35;32.71;99282.56;5046652;28;20110;-44
2022/07/19 07:41:30;;;;;;;3.38;0.95;;;;;;;29.02;30.86;99276.81;5051329;28;20513;-45
2022/07/19 07:43:56;;;;;;;4.68;0.90;;;;;;;30.58;28.97;99272.22;5050529;28;20431;-42
2022/07/19 07:46:21;;;;;;;1.58;0.80;;;;;;;32.07;26.92;99267.38;5055013;28;20127;-42
2022/07/19 07:48:48;;;;;;;1.85;0.88;;;;;;;32.77;25.61;99274.25;5061739;28;20135;-41
2022/07/19 07:51:14;;;;;;;3.05;0.90;;;;;;;33.31;25.78;99281.34;5024722;28;20121;-42
2022/07/19 07:53:39;;;;;;;3.72;1.00;;;;;;;34.53;24.33;99276.03;5046845;28;20076;-43
2022/07/19 07:56:05;;;;;;;4.25;1.00;;;;;;;34.85;23.25;99280.41;5047481;28;20068;-44
2022/07/19 07:58:31;;;;;;;1.75;0.95;;;;;;;32.20;25.51;99261.22;5049455;28;20082;-51
2022/07/19 08:00:57;;;;;;;0.90;0.70;;;;;;;32.67;25.61;99269.25;5052259;28;20505;-44
2022/07/19 08:03:23;;;;;;;3.58;1.00;;;;;;;32.22;26.22;99280.72;5057754;28;20036;-43
2022/07/19 08:05:49;;;;;;;1.33;0.80;;;;;;;31.98;25.31;99290.91;5072810;28;20042;-42
2022/07/19 08:08:15;;;;;;;1.00;0.85;;;;;;;33.29;24.21;99283.44;5061638;28;20040;-41
2022/07/19 08:10:41;;;;;;;1.30;0.90;;;;;;;35.38;21.97;99280.84;5052467;28;20087;-42
2022/07/19 08:13:09;;;;;;;1.45;1.17;;;;;;;35.48;21.91;99283.88;5033963;28;20136;-44
2022/07/19 08:15:37;;;;;;;1.77;1.00;;;;;;;36.61;21.20;99292.34;5033981;28;20036;-45
2022/07/19 08:18:03;;;;;;;1.83;0.98;;;;;;;37.25;20.24;99297.03;5050330;28;20036;-49
2022/07/19 08:20:29;;;;;;;2.22;0.50;;;;;;;36.99;19.55;99294.72;5046229;28;20119;-45
2022/07/19 08:22:54;;;;;;;2.08;1.02;;;;;;;35.30;21.24;99270.28;5034127;28;20516;-44
2022/07/19 08:25:20;;;;;;;1.77;0.85;;;;;;;36.08;20.29;99287.59;5050960;28;20091;-42
2022/07/19 08:27:46;;;;;;;2.50;0.63;;;;;;;36.18;19.90;99286.25;5052021;28;20118;-43
2022/07/19 08:30:13;;;;;;;2.28;1.10;;;;;;;34.41;21.53;99276.72;5033811;28;20769;-43
2022/07/19 08:32:39;;;;;;;4.93;4.13;;;;;;;32.31;23.86;99283.03;5050807;28;20071;-46
2022/07/19 08:35:06;;;;;;;2.65;1.20;;;;;;;30.67;25.90;99282.63;5033876;28;20041;-43
2022/07/19 08:37:32;;;;;;;1.05;0.90;;;;;;;31.90;24.42;99285.72;5050456;28;20048;-44
2022/07/19 08:39:58;;;;;;;4.50;1.02;;;;;;;32.91;22.97;99281.31;5056606;28;20033;-44
2022/07/19 08:42:24;;;;;;;0.98;0.80;;;;;;;33.89;21.90;99268.81;5051636;28;20588;-47
2022/07/19 08:44:53;;;;;;;2.65;1.20;;;;;;;35.40;21.27;99280.59;5050657;28;20040;-43
2022/07/19 08:47:20;;;;;;;9.13;3.22;;;;;;;36.76;19.83;99287.34;5051591;28;20049;-45
2022/07/19 08:49:46;;;;;;;1.00;1.00;;;;;;;36.37;18.47;99283.31;5051219;28;20198;-40
2022/07/19 08:52:13;;;;;;;2.00;1.20;;;;;;;35.91;19.57;99266.75;5032642;28;20394;-40
2022/07/19 08:54:39;;;;;;;2.20;0.70;;;;;;;35.95;20.17;99279.63;5050831;28;20048;-45
2022/07/19 08:59:50;;;;;;;2.58;1.10;;;;;;;32.88;21.89;99262.88;5050657;28;20064;-42
2022/07/19 09:02:16;;;;;;;1.77;1.10;;;;;;;34.31;20.26;99264.72;5050681;28;20048;-44
2022/07/19 09:04:43;;;;;;;1.80;1.30;;;;;;;34.10;20.71;99263.13;5049887;28;20048;-43
2022/07/19 09:07:08;;;;;;;1.50;0.60;;;;;;;32.47;21.55;99249.53;5066649;28;20178;-40
2022/07/19 09:09:36;;;;;;;1.23;1.10;;;;;;;32.84;21.29;99247.31;5033088;28;20037;-45
2022/07/19 09:12:04;;;;;;;0.90;0.90;;;;;;;34.61;19.45;99262.25;5051196;28;20041;-44
2022/07/19 09:14:31;;;;;;;1.02;0.93;;;;;;;33.31;20.00;99251.69;5051128;28;20051;-43
2022/07/19 09:17:04;;;;;;;2.42;1.17;;;;;;;32.16;21.08;99257.28;5050736;28;20047;-44
2022/07/19 09:19:35;;;;;;;2.80;2.50;;;;;;;34.18;19.95;99246.69;5050001;28;20079;-40
2022/07/19 09:22:04;;;;;;;3.03;1.63;;;;;;;33.34;21.23;99243.22;5048260;28;20531;-42
2022/07/19 09:24:33;;;;;;;1.15;0.90;;;;;;;31.86;22.92;99238.75;5028633;28;20048;-43
2022/07/19 09:27:03;;;;;;;1.42;1.13;;;;;;;30.91;23.78;99246.53;5049581;28;20036;-43
2022/07/19 09:29:31;;;;;;;3.80;1.50;;;;;;;32.54;22.28;99228.84;5050460;28;20040;-43
2022/07/19 09:32:10;;;;;;;6.40;1.52;;;;;;;35.16;19.51;99253.34;5050642;28;20500;-44
2022/07/19 09:34:37;;;;;;;3.17;1.10;;;;;;;36.58;18.82;99237.78;5050568;28;20064;-44
2022/07/19 09:37:15;;;;;;;3.30;0.93;;;;;;;36.71;18.83;99246.56;5047250;28;20044;-44
2022/07/19 09:39:44;;;;;;;3.92;1.85;;;;;;;37.75;17.61;99243.09;5045945;28;20109;-43
2022/07/19 09:42:20;;;;;;;2.75;1.50;;;;;;;38.81;16.62;99257.13;5049212;28;20501;-44
2022/07/19 09:44:46;;;;;;;4.85;1.48;;;;;;;39.74;16.40;99242.81;5045320;28;20462;-44
2022/07/19 09:47:13;;;;;;;6.20;5.65;;;;;;;40.62;15.55;99258.03;5029698;28;20053;-42
2022/07/19 09:49:39;;;;;;;2.10;1.60;;;;;;;40.09;16.16;99254.19;5046001;28;20042;-44
2022/07/19 09:52:05;;;;;;;2.67;0.85;;;;;;;36.19;18.49;99245.41;5030382;28;20084;-44
2022/07/19 09:54:31;;;;;;;1.63;1.20;;;;;;;34.31;19.95;99238.56;5041351;28;20037;-44
2022/07/19 09:56:58;;;;;;;3.28;1.00;;;;;;;33.09;20.89;99230.34;5049106;28;20041;-44
2022/07/19 09:59:26;;;;;;;1.30;1.05;;;;;;;34.35;20.22;99242.47;5049245;28;20045;-43
2022/07/19 10:01:53;;;;;;;2.80;1.20;;;;;;;33.63;20.94;99232.75;5047215;28;20709;-42
2022/07/19 10:04:21;;;;;;;1.92;1.20;;;;;;;35.54;19.54;99230.75;5047559;28;20524;-43
2022/07/19 10:06:49;;;;;;;2.03;1.00;;;;;;;36.45;18.23;99239.63;5031810;28;20088;-43
2022/07/19 10:09:17;;;;;;;2.60;0.70;;;;;;;35.33;19.19;99231.19;5050562;28;20045;-41
2022/07/19 10:11:44;;;;;;;2.03;0.77;;;;;;;33.43;21.38;99232.00;5050330;28;20463;-40
2022/07/19 10:14:11;;;;;;;2.58;0.80;;;;;;;32.45;22.83;99221.97;5049044;28;20405;-41
2022/07/19 10:16:58;;;;;;;0.80;0.63;;;;;;;31.06;24.24;99231.19;5039591;28;20052;-42
2022/07/19 10:19:46;;;;;;;2.65;0.70;;;;;;;30.75;24.16;99228.00;5028929;28;20476;-37
2022/07/19 10:22:14;;;;;;;3.58;0.95;;;;;;;30.59;24.58;99241.69;5048121;28;20041;-39
2022/07/19 10:24:43;;;;;;;;;;;;;;;30.16;24.99;99230.88;5048869;28;20041;-40
